Time;durP1;ratioP1;P1;durP2;ratioP2;P2;SDS_P1;SDS_P2;PMS_P1;PMS_P2;Temp;Humidity;BMP_temperature;BMP_pressure;BME280_temperature;BME280_humidity;BME280_pressure;Samples;Min_cycle;Max_cycle;Signal;HPM_P1;HPM_P2
2022/11/17 00:01:22;;;;;;;2.25;1.30;;;;;;;19.12;51.66;99108.94;5025649;28;20486;-58
2022/11/17 00:03:48;;;;;;;1.50;1.08;;;;;;;19.12;51.32;99095.47;5025274;28;20018;-59
2022/11/17 00:06:15;;;;;;;3.22;1.20;;;;;;;19.11;51.65;99097.31;5025271;28;20100;-58
2022/11/17 00:08:40;;;;;;;2.13;1.23;;;;;;;19.08;51.30;99083.47;5025506;28;20069;-59
2022/11/17 00:11:06;;;;;;;2.25;1.20;;;;;;;18.92;51.27;99064.06;5025590;28;20037;-58
2022/11/17 00:16:16;;;;;;;2.08;1.20;;;;;;;19.10;51.71;99086.78;5009366;28;20041;-59
2022/11/17 00:21:27;;;;;;;1.30;0.90;;;;;;;19.08;51.24;99068.16;5025021;28;20115;-57
2022/11/17 00:23:54;;;;;;;1.83;1.42;;;;;;;19.08;51.37;99070.00;5024783;28;20034;-58
2022/11/17 00:26:21;;;;;;;2.33;1.10;;;;;;;19.07;51.59;99057.56;5025078;28;20097;-58
2022/11/17 00:28:51;;;;;;;1.98;1.08;;;;;;;19.05;51.61;99057.78;5025062;28;20061;-58
2022/11/17 00:34:06;;;;;;;1.88;1.00;;;;;;;19.05;51.28;99047.00;5024481;28;20718;-58
2022/11/17 00:36:37;;;;;;;1.90;1.25;;;;;;;19.05;51.82;99035.41;5024882;28;20030;-59
2022/11/17 00:39:02;;;;;;;2.20;0.93;;;;;;;19.01;51.48;99018.84;5024998;28;20026;-59
2022/11/17 00:41:28;;;;;;;2.60;1.33;;;;;;;19.02;51.36;99015.13;5025065;28;20041;-59
2022/11/17 00:43:53;;;;;;;1.40;0.90;;;;;;;19.02;51.28;99017.00;5024275;28;20692;-58
2022/11/17 00:46:18;;;;;;;1.90;1.05;;;;;;;19.02;51.71;99003.53;5024542;28;20030;-58
2022/11/17 00:48:44;;;;;;;1.88;1.38;;;;;;;19.01;51.35;99005.38;5024218;28;20025;-59
2022/11/17 00:51:09;;;;;;;1.70;1.00;;;;;;;19.01;51.38;98983.03;5024545;28;20149;-58
2022/11/17 00:53:34;;;;;;;1.55;0.90;;;;;;;19.00;51.50;98976.81;5024509;28;20033;-58
2022/11/17 00:55:59;;;;;;;2.47;1.20;;;;;;;19.00;51.30;98978.69;5024496;28;20117;-59
2022/11/17 00:58:25;;;;;;;1.98;1.15;;;;;;;18.98;51.37;98958.16;5024540;28;20099;-58
2022/11/17 01:00:50;;;;;;;1.73;1.00;;;;;;;18.98;51.53;98952.78;5024636;28;20037;-58
2022/11/17 01:03:15;;;;;;;1.70;1.10;;;;;;;18.98;51.33;98941.19;5024108;28;20033;-58
2022/11/17 01:05:40;;;;;;;2.38;1.58;;;;;;;18.97;51.51;98931.47;5024360;28;20689;-60
2022/11/17 01:08:06;;;;;;;1.10;1.00;;;;;;;18.97;51.56;98929.59;5024196;28;20070;-59
2022/11/17 01:10:33;;;;;;;1.48;1.00;;;;;;;18.65;51.35;98866.81;5024608;28;20029;-59
2022/11/17 01:12:59;;;;;;;1.10;0.98;;;;;;;18.95;51.31;98923.59;5024236;28;20061;-59
2022/11/17 01:15:24;;;;;;;1.70;1.20;;;;;;;18.95;51.38;98920.09;5021844;28;20021;-58
2022/11/17 01:17:49;;;;;;;2.25;1.02;;;;;;;18.93;51.30;98906.81;5023347;28;20094;-58
2022/11/17 01:20:14;;;;;;;1.77;1.02;;;;;;;18.94;51.48;98897.69;5003364;28;20030;-59
2022/11/17 01:22:40;;;;;;;2.45;1.20;;;;;;;18.93;51.17;98896.06;5020125;28;20526;-59
2022/11/17 01:25:05;;;;;;;1.55;1.02;;;;;;;18.92;51.13;98897.09;5024071;28;20079;-58
2022/11/17 01:27:30;;;;;;;2.30;1.02;;;;;;;18.93;51.49;98895.22;5024081;28;20025;-59
2022/11/17 01:29:56;;;;;;;1.98;1.15;;;;;;;18.93;51.52;98884.47;5024037;28;20037;-59
2022/11/17 01:32:21;;;;;;;2.65;1.05;;;;;;;18.92;51.49;98891.72;5023638;28;20048;-59
2022/11/17 01:34:46;;;;;;;1.75;1.02;;;;;;;18.91;51.43;98882.00;5024031;28;20057;-59
2022/11/17 01:37:20;;;;;;;1.38;1.10;;;;;;;18.90;51.52;98874.97;5023782;28;20467;-58
2022/11/17 01:39:47;;;;;;;1.50;1.00;;;;;;;18.90;51.23;98857.97;5024003;28;20057;-59
2022/11/17 01:42:19;;;;;;;2.78;1.17;;;;;;;18.88;51.13;98850.09;5006333;28;20093;-59
2022/11/17 01:45:12;;;;;;;2.10;1.33;;;;;;;18.87;51.56;98834.19;5023715;28;20097;-59
2022/11/17 01:47:39;;;;;;;1.73;1.10;;;;;;;18.88;51.47;98839.34;5005307;28;20053;-59
2022/11/17 01:50:25;;;;;;;1.45;1.10;;;;;;;18.87;51.58;98835.00;5006233;28;20033;-59
2022/11/17 01:52:53;;;;;;;2.35;1.10;;;;;;;18.86;51.06;98809.13;5005373;28;20041;-59
2022/11/17 01:55:20;;;;;;;1.70;1.00;;;;;;;18.87;51.15;98820.72;5006251;28;20029;-59
2022/11/17 01:57:50;;;;;;;1.20;1.10;;;;;;;18.86;51.46;98810.97;5006051;28;20096;-59
2022/11/17 02:00:15;;;;;;;1.77;1.00;;;;;;;18.86;51.44;98801.06;5023895;28;20034;-59
2022/11/17 02:02:42;;;;;;;1.40;1.13;;;;;;;18.81;51.21;98770.44;5023466;28;20041;-59
2022/11/17 02:05:36;;;;;;;1.60;1.10;;;;;;;18.85;51.27;98782.41;5006090;28;20033;-59
2022/11/17 02:08:03;;;;;;;2.10;1.10;;;;;;;18.84;51.55;98792.34;5023473;28;20022;-60
2022/11/17 02:10:30;;;;;;;3.20;1.20;;;;;;;18.83;51.30;98762.97;5006179;28;20033;-59
2022/11/17 02:12:55;;;;;;;1.73;1.05;;;;;;;18.75;51.51;98750.59;5005832;28;20754;-59
2022/11/17 02:15:21;;;;;;;1.45;1.05;;;;;;;18.83;51.56;98760.28;5022783;28;20034;-58
2022/11/17 02:17:46;;;;;;;1.20;1.02;;;;;;;18.82;51.27;98748.69;5005096;28;20041;-59
2022/11/17 02:20:50;;;;;;;1.67;1.08;;;;;;;18.81;51.18;98752.41;5005834;28;20049;-59
2022/11/17 02:23:37;;;;;;;1.35;1.15;;;;;;;18.82;51.33;98742.44;5021451;28;20057;-59
2022/11/17 02:26:18;;;;;;;2.90;1.10;;;;;;;18.80;51.39;98742.69;5023292;28;20029;-59
2022/11/17 02:29:09;;;;;;;1.48;1.20;;;;;;;18.80;51.43;98733.78;5005876;28;20034;-60
2022/11/17 02:32:00;;;;;;;2.53;1.02;;;;;;;18.78;51.16;98725.13;4997581;28;20053;-59
2022/11/17 02:34:59;;;;;;;1.58;1.20;;;;;;;18.76;51.26;98713.72;5005984;28;20041;-58
2022/11/17 02:37:31;;;;;;;1.73;0.88;;;;;;;18.77;51.50;98736.91;5012214;28;20108;-58
2022/11/17 02:40:21;;;;;;;1.52;1.10;;;;;;;18.77;51.48;98731.53;5005651;28;20041;-58
2022/11/17 02:45:44;;;;;;;1.25;1.05;;;;;;;18.76;51.34;98705.66;5007974;28;20053;-58
2022/11/17 02:48:14;;;;;;;1.17;0.98;;;;;;;18.75;51.08;98729.06;5022540;28;20120;-58
2022/11/17 02:50:40;;;;;;;1.65;0.95;;;;;;;18.72;51.36;98719.56;5006051;28;20032;-58
2022/11/17 02:53:06;;;;;;;1.15;0.90;;;;;;;18.72;51.49;98695.31;5005367;28;20114;-58
2022/11/17 02:55:34;;;;;;;1.75;1.13;;;;;;;18.73;51.52;98688.06;5023049;28;20596;-59
2022/11/17 02:58:00;;;;;;;1.17;1.00;;;;;;;18.66;51.54;98693.50;5005514;28;20026;-57
2022/11/17 03:00:26;;;;;;;0.93;0.82;;;;;;;18.72;51.57;98689.94;5023238;28;20032;-58
2022/11/17 03:03:16;;;;;;;1.70;1.00;;;;;;;18.72;51.42;98697.19;5005148;28;20030;-59
2022/11/17 03:05:58;;;;;;;1.73;1.00;;;;;;;18.72;51.50;98689.13;5009119;28;20017;-58
2022/11/17 03:08:38;;;;;;;1.75;1.20;;;;;;;18.71;51.36;98701.75;5009366;28;20095;-58
2022/11/17 03:11:07;;;;;;;1.80;1.30;;;;;;;18.71;51.34;98688.28;5026947;28;20026;-58
2022/11/17 03:13:32;;;;;;;;;;;;;;;18.71;51.35;98685.59;5026790;28;20029;-58
2022/11/17 03:16:08;;;;;;;2.45;1.20;;;;;;;18.70;51.39;98694.75;5025790;28;19917;-58
2022/11/17 03:18:45;;;;;;;1.15;1.02;;;;;;;18.68;51.32;98706.72;5008455;28;20029;-58
2022/11/17 03:21:21;;;;;;;1.83;0.88;;;;;;;18.68;51.26;98693.25;5008822;28;20057;-59
2022/11/17 03:23:54;;;;;;;2.58;1.20;;;;;;;18.66;51.31;98685.41;5015963;28;20033;-59
2022/11/17 03:26:24;;;;;;;1.58;1.10;;;;;;;18.66;51.06;98679.22;5008822;28;20522;-58
2022/11/17 03:28:49;;;;;;;1.38;0.98;;;;;;;18.66;51.11;98663.06;5008761;28;20030;-58
2022/11/17 03:31:16;;;;;;;1.60;1.08;;;;;;;18.62;51.40;98660.00;5008950;28;20088;-59
2022/11/17 03:33:42;;;;;;;1.17;0.90;;;;;;;18.66;51.21;98671.16;5024282;28;20026;-58
2022/11/17 03:36:14;;;;;;;1.25;0.93;;;;;;;18.65;51.53;98680.28;5007975;28;20052;-59
2022/11/17 03:38:45;;;;;;;2.00;0.90;;;;;;;18.65;51.28;98669.50;5008524;28;20029;-59
2022/11/17 03:41:12;;;;;;;1.60;0.98;;;;;;;18.64;51.22;98670.53;5008625;28;20147;-59
2022/11/17 03:43:38;;;;;;;1.23;1.02;;;;;;;18.64;51.25;98675.91;5008143;28;20045;-59
2022/11/17 03:46:10;;;;;;;1.40;1.00;;;;;;;18.63;51.13;98668.88;5025435;28;20037;-58
2022/11/17 03:48:52;;;;;;;1.23;1.05;;;;;;;18.62;51.64;98678.00;5025386;28;20062;-59
2022/11/17 03:51:22;;;;;;;1.45;1.13;;;;;;;18.64;51.53;98686.69;5008141;28;20032;-58
2022/11/17 03:53:48;;;;;;;1.65;0.95;;;;;;;18.64;51.23;98686.69;5008134;28;20368;-58
2022/11/17 03:56:36;;;;;;;1.02;0.93;;;;;;;18.62;51.42;98678.84;5025828;28;20071;-59
2022/11/17 03:59:05;;;;;;;1.00;0.90;;;;;;;18.53;51.21;98660.50;5008037;28;20026;-59
2022/11/17 04:01:31;;;;;;;;;;;;;;;18.63;51.27;98675.09;5008924;28;20026;-60
2022/11/17 04:03:56;;;;;;;1.13;1.00;;;;;;;18.62;51.42;98670.75;5007869;28;20072;-59
2022/11/17 04:06:21;;;;;;;1.45;0.93;;;;;;;18.60;51.42;98664.75;5025520;28;20025;-59
2022/11/17 04:08:46;;;;;;;1.10;1.00;;;;;;;18.58;51.29;98664.16;5025417;28;20533;-59
2022/11/17 04:16:39;;;;;;;1.50;1.10;;;;;;;18.59;51.52;98657.72;5024282;28;20065;-59
2022/11/17 04:19:05;;;;;;;1.67;1.52;;;;;;;18.56;51.13;98649.28;5024937;28;20025;-60
2022/11/17 04:21:30;;;;;;;1.08;0.98;;;;;;;18.52;51.62;98632.78;5007603;28;20077;-59
2022/11/17 04:23:56;;;;;;;1.02;1.00;;;;;;;18.57;51.31;98634.81;5025028;28;20026;-60
2022/11/17 04:29:06;;;;;;;2.67;0.90;;;;;;;18.56;51.56;98636.63;5025225;28;20045;-59
2022/11/17 04:31:31;;;;;;;1.20;1.02;;;;;;;18.56;51.35;98617.81;5025293;28;20033;-60
2022/11/17 04:34:00;;;;;;;1.45;0.90;;;;;;;18.57;51.33;98610.56;5024735;28;20029;-60
2022/11/17 04:36:28;;;;;;;1.15;0.93;;;;;;;18.56;51.46;98614.28;5024447;28;20064;-59
2022/11/17 04:38:55;;;;;;;2.45;1.30;;;;;;;18.55;51.35;98609.97;5024957;28;20030;-59
2022/11/17 04:44:08;;;;;;;2.58;1.08;;;;;;;18.55;51.54;98612.66;5024952;28;20025;-60
2022/11/17 04:46:35;;;;;;;1.38;0.93;;;;;;;18.43;51.47;98588.34;5024532;28;20029;-60
2022/11/17 04:49:01;;;;;;;1.75;0.90;;;;;;;18.45;51.32;98599.72;5024547;28;20018;-60
2022/11/17 04:51:27;;;;;;;1.17;0.95;;;;;;;18.51;51.33;98598.81;5024856;28;20165;-59
2022/11/17 04:53:53;;;;;;;2.00;1.00;;;;;;;18.54;51.53;98609.13;5024802;28;20462;-59
2022/11/17 04:56:20;;;;;;;1.63;0.93;;;;;;;18.54;51.55;98592.19;5024626;28;20045;-58
2022/11/17 04:58:46;;;;;;;0.90;0.90;;;;;;;18.45;51.27;98587.09;5024632;28;20026;-58
2022/11/17 05:01:11;;;;;;;1.25;1.10;;;;;;;18.53;51.68;98595.91;5024178;28;20036;-56
2022/11/17 05:03:47;;;;;;;0.98;0.80;;;;;;;18.53;51.44;98590.53;5023421;28;20029;-59
2022/11/17 05:06:25;;;;;;;1.38;0.80;;;;;;;18.46;51.50;98583.34;5024102;28;20037;-58
2022/11/17 05:08:54;;;;;;;1.55;0.90;;;;;;;18.52;51.23;98586.19;5024636;28;20030;-58
2022/11/17 05:14:05;;;;;;;1.25;1.05;;;;;;;18.52;51.42;98588.88;5024371;28;20057;-58
2022/11/17 05:19:22;;;;;;;1.05;0.90;;;;;;;18.51;51.14;98588.06;5023889;28;20069;-54
2022/11/17 05:21:48;;;;;;;1.30;0.93;;;;;;;18.51;51.15;98576.47;5023742;28;20125;-58
2022/11/17 05:24:13;;;;;;;1.13;0.98;;;;;;;18.51;51.55;98573.78;5005511;28;20386;-60
2022/11/17 05:26:39;;;;;;;1.50;0.80;;;;;;;18.47;51.34;98559.94;5023149;28;20042;-58
2022/11/17 05:29:06;;;;;;;1.05;0.88;;;;;;;18.50;51.75;98562.19;5005380;28;20069;-58
2022/11/17 05:31:31;;;;;;;1.73;0.85;;;;;;;18.52;51.61;98564.66;5023182;28;20026;-59
2022/11/17 05:33:57;;;;;;;1.40;0.90;;;;;;;18.52;51.69;98567.34;5023052;28;20080;-60
2022/11/17 05:36:23;;;;;;;1.25;0.98;;;;;;;18.51;51.63;98545.00;5022723;28;20691;-59
2022/11/17 05:38:49;;;;;;;1.55;0.82;;;;;;;18.52;51.31;98543.13;5023493;28;20098;-59
2022/11/17 05:41:15;;;;;;;0.90;0.90;;;;;;;18.52;51.36;98546.66;5023406;28;20042;-57
2022/11/17 05:43:41;;;;;;;1.55;1.08;;;;;;;18.51;51.37;98550.38;5023259;28;20026;-58
2022/11/17 05:46:06;;;;;;;1.05;0.75;;;;;;;18.52;51.88;98538.59;5022958;28;20025;-59
2022/11/17 05:48:32;;;;;;;0.80;0.80;;;;;;;18.51;51.43;98526.16;5022733;28;20030;-59
2022/11/17 05:50:58;;;;;;;1.25;0.90;;;;;;;18.50;51.58;98527.22;5023428;28;20076;-58
2022/11/17 05:53:24;;;;;;;1.17;1.08;;;;;;;18.52;51.49;98541.28;5020405;28;20022;-58
2022/11/17 05:55:49;;;;;;;1.05;0.80;;;;;;;18.53;51.56;98536.72;5023116;28;20030;-57
2022/11/17 05:58:21;;;;;;;1.25;0.85;;;;;;;18.42;51.82;98509.50;5022852;28;20101;-58
2022/11/17 06:00:47;;;;;;;1.77;1.00;;;;;;;18.51;51.44;98534.22;5005903;28;20093;-59
2022/11/17 06:03:17;;;;;;;1.42;1.20;;;;;;;18.53;51.79;98520.56;5004518;28;20034;-59
2022/11/17 06:05:43;;;;;;;2.50;0.90;;;;;;;18.53;51.94;98524.09;5022307;28;20120;-58
2022/11/17 06:08:08;;;;;;;1.27;0.80;;;;;;;18.52;52.16;98511.69;5002768;28;20057;-59
2022/11/17 06:10:34;;;;;;;0.93;0.80;;;;;;;18.52;52.09;98497.38;5023173;28;20041;-59
2022/11/17 06:12:59;;;;;;;1.15;0.80;;;;;;;18.54;51.86;98514.13;5022720;28;20510;-58
2022/11/17 06:15:24;;;;;;;0.80;0.80;;;;;;;18.54;52.09;98517.66;5022203;28;20040;-59
2022/11/17 06:17:54;;;;;;;2.50;1.10;;;;;;;18.55;51.83;98518.47;5003479;28;20030;-59
2022/11/17 06:20:26;;;;;;;1.75;0.80;;;;;;;18.54;52.08;98511.44;5014631;28;20089;-58
2022/11/17 06:22:54;;;;;;;1.13;0.82;;;;;;;18.55;52.07;98523.84;5003108;28;20049;-59
2022/11/17 06:25:19;;;;;;;1.10;0.88;;;;;;;18.54;52.48;98517.66;5005286;28;20068;-59
2022/11/17 06:27:45;;;;;;;0.80;0.70;;;;;;;18.53;52.28;98512.50;5022458;28;20030;-59
2022/11/17 06:30:11;;;;;;;0.85;0.85;;;;;;;18.54;52.26;98517.66;5005461;28;20022;-59
2022/11/17 06:32:37;;;;;;;1.02;0.70;;;;;;;18.55;52.20;98513.91;5022429;28;20060;-58
2022/11/17 06:35:05;;;;;;;1.75;0.75;;;;;;;18.45;52.08;98492.91;5020328;28;20022;-59
2022/11/17 06:37:30;;;;;;;1.98;1.45;;;;;;;18.54;52.09;98503.38;5004508;28;20085;-59
2022/11/17 06:39:55;;;;;;;1.90;0.90;;;;;;;18.55;52.46;98511.22;5026040;28;20033;-59
2022/11/17 06:43:02;;;;;;;0.80;0.80;;;;;;;18.55;52.12;98515.78;5027675;28;20041;-59
2022/11/17 06:45:06;;;;;;;1.85;0.80;;;;;;;18.54;52.41;98512.25;5026972;28;20624;-59
2022/11/17 06:47:32;;;;;;;1.45;0.82;;;;;;;18.55;52.37;98511.22;5026336;28;20026;-59
2022/11/17 06:49:57;;;;;;;1.30;0.85;;;;;;;18.54;52.21;98498.00;5026955;28;20120;-59
2022/11/17 06:52:23;;;;;;;1.67;0.98;;;;;;;18.56;52.39;98512.84;5026300;28;20018;-60
2022/11/17 06:54:49;;;;;;;1.15;0.95;;;;;;;18.56;52.47;98512.03;5026740;28;20086;-58
2022/11/17 06:57:14;;;;;;;1.20;0.82;;;;;;;18.56;52.66;98518.22;5026209;28;20030;-61
2022/11/17 06:59:39;;;;;;;1.15;0.90;;;;;;;18.56;52.79;98518.22;5026326;28;20034;-61
2022/11/17 07:02:04;;;;;;;0.80;0.80;;;;;;;18.56;52.33;98520.09;5025771;28;20041;-60
2022/11/17 07:04:29;;;;;;;2.78;0.90;;;;;;;18.55;52.61;98532.75;5026292;28;20493;-60
2022/11/17 07:06:55;;;;;;;3.70;1.00;;;;;;;18.55;52.25;98523.84;5025409;28;20116;-60
2022/11/17 07:09:20;;;;;;;1.42;0.88;;;;;;;18.54;52.46;98531.09;5026061;28;20038;-60
2022/11/17 07:11:45;;;;;;;0.80;0.73;;;;;;;18.51;52.75;98517.28;5025913;28;20028;-59
2022/11/17 07:14:10;;;;;;;1.15;0.88;;;;;;;18.55;52.67;98516.59;5025458;28;20025;-60
2022/11/17 07:16:36;;;;;;;2.85;0.77;;;;;;;18.54;52.72;98525.72;5025089;28;20041;-60
2022/11/17 07:19:02;;;;;;;1.30;0.82;;;;;;;18.55;52.41;98523.84;5007834;28;20034;-60
2022/11/17 07:21:27;;;;;;;2.03;0.95;;;;;;;18.55;52.97;98530.06;5023219;28;20038;-60
2022/11/17 07:23:53;;;;;;;1.73;1.00;;;;;;;18.55;52.93;98530.06;5025870;28;20081;-61
2022/11/17 07:26:18;;;;;;;2.22;1.00;;;;;;;18.55;52.67;98534.63;5025332;28;20022;-61
2022/11/17 07:28:43;;;;;;;1.42;0.98;;;;;;;18.55;52.72;98532.75;5025335;28;20094;-59
2022/11/17 07:31:08;;;;;;;1.75;1.00;;;;;;;18.57;52.29;98538.75;5026301;28;20738;-60
2022/11/17 07:33:34;;;;;;;1.27;0.90;;;;;;;18.57;52.91;98538.75;5025524;28;20402;-61
2022/11/17 07:36:17;;;;;;;1.17;0.88;;;;;;;18.34;52.45;98504.41;5025347;28;20025;-60
2022/11/17 07:38:43;;;;;;;5.47;1.40;;;;;;;18.57;52.56;98536.03;5020756;28;20034;-61
2022/11/17 07:41:11;;;;;;;2.60;1.00;;;;;;;18.52;52.68;98527.81;5017494;28;20040;-61
2022/11/17 07:43:37;;;;;;;2.80;0.80;;;;;;;18.57;52.62;98546.00;5017417;28;20040;-61
2022/11/17 07:46:10;;;;;;;1.58;0.80;;;;;;;18.56;52.65;98550.53;5020050;28;20062;-61
2022/11/17 07:48:35;;;;;;;3.67;0.90;;;;;;;18.57;53.10;98543.31;5023994;28;20110;-61
2022/11/17 07:51:01;;;;;;;2.03;0.90;;;;;;;18.54;52.80;98539.19;5023563;28;20037;-61
2022/11/17 07:53:27;;;;;;;2.55;1.00;;;;;;;18.57;52.85;98540.59;5014969;28;20090;-61
2022/11/17 07:55:53;;;;;;;1.83;0.82;;;;;;;18.59;52.91;98546.56;5014515;28;20033;-58
2022/11/17 07:58:18;;;;;;;2.35;0.93;;;;;;;18.60;52.70;98548.22;5021636;28;20041;-60
2022/11/17 08:00:43;;;;;;;1.50;1.25;;;;;;;18.60;52.75;98546.34;5020842;28;20034;-60
2022/11/17 08:03:09;;;;;;;1.50;0.93;;;;;;;18.60;52.97;98551.72;5011485;28;20041;-61
2022/11/17 08:05:35;;;;;;;1.10;0.98;;;;;;;18.61;52.96;98552.56;5005320;28;20041;-61
2022/11/17 08:08:00;;;;;;;1.40;0.85;;;;;;;18.59;53.03;98551.97;5017371;28;20036;-60
2022/11/17 08:10:29;;;;;;;1.85;1.00;;;;;;;18.63;52.88;98559.34;4993848;28;20117;-59
2022/11/17 08:12:55;;;;;;;2.38;0.88;;;;;;;18.63;52.86;98562.06;5023966;28;20041;-58
2022/11/17 08:15:21;;;;;;;1.42;0.90;;;;;;;18.66;52.76;98568.88;5017606;28;20063;-61
2022/11/17 08:17:51;;;;;;;2.25;1.02;;;;;;;18.65;52.71;98578.00;5024219;28;20034;-61
2022/11/17 08:20:16;;;;;;;1.42;0.90;;;;;;;18.65;52.79;98569.91;5024696;28;20089;-60
2022/11/17 08:22:41;;;;;;;1.02;0.68;;;;;;;18.67;52.98;98575.88;5022973;28;20053;-59
2022/11/17 08:25:07;;;;;;;2.97;0.95;;;;;;;18.66;52.79;98564.31;5023727;28;20442;-62
2022/11/17 08:27:33;;;;;;;4.25;0.88;;;;;;;18.69;52.85;98571.09;5024130;28;20052;-58
2022/11/17 08:29:59;;;;;;;1.98;0.95;;;;;;;18.68;52.83;98575.66;5023034;28;20034;-57
2022/11/17 08:32:24;;;;;;;2.03;1.10;;;;;;;18.70;52.90;98576.31;5024048;28;20030;-61
2022/11/17 08:34:49;;;;;;;1.30;1.15;;;;;;;18.72;52.88;98582.28;5024316;28;20534;-61
2022/11/17 08:37:14;;;;;;;1.27;0.70;;;;;;;18.74;52.67;98582.06;5023932;28;20386;-61
2022/11/17 08:39:40;;;;;;;0.80;0.60;;;;;;;18.75;52.85;98580.19;5006402;28;20384;-60
2022/11/17 08:42:05;;;;;;;1.60;0.63;;;;;;;18.77;52.62;98584.28;5015610;28;20307;-61
2022/11/17 08:44:30;;;;;;;0.88;0.77;;;;;;;18.76;52.50;98590.72;5020869;28;20100;-61
2022/11/17 08:46:56;;;;;;;1.25;0.90;;;;;;;18.79;52.49;98594.84;5004413;28;20082;-62
2022/11/17 08:49:21;;;;;;;0.95;0.80;;;;;;;18.82;52.34;98595.22;5017158;28;20030;-61
2022/11/17 08:51:46;;;;;;;1.10;0.70;;;;;;;18.82;52.33;98592.53;5011238;28;20029;-60
2022/11/17 08:54:11;;;;;;;1.05;0.90;;;;;;;18.82;52.22;98597.06;5008281;28;20026;-60
2022/11/17 08:56:37;;;;;;;0.70;0.70;;;;;;;18.84;52.21;98603.88;5023509;28;20030;-61
2022/11/17 08:59:02;;;;;;;0.82;0.70;;;;;;;18.84;52.54;98603.06;5019206;28;20034;-61
2022/11/17 09:01:27;;;;;;;1.63;0.85;;;;;;;18.83;52.48;98596.88;5023880;28;20045;-62
2022/11/17 09:03:53;;;;;;;1.25;0.80;;;;;;;18.83;52.57;98607.63;5023671;28;20475;-57
2022/11/17 09:06:18;;;;;;;1.20;0.90;;;;;;;18.56;52.51;98577.44;5006729;28;20027;-61
2022/11/17 09:08:44;;;;;;;0.95;0.80;;;;;;;18.81;52.33;98612.41;5004387;28;20045;-61
2022/11/17 09:11:10;;;;;;;2.65;0.75;;;;;;;18.82;52.52;98618.59;5021230;28;20089;-60
2022/11/17 09:13:36;;;;;;;1.33;1.02;;;;;;;18.83;52.82;98620.28;5022940;28;20026;-60
2022/11/17 09:16:08;;;;;;;0.88;0.70;;;;;;;18.82;52.61;98622.16;5019602;28;20057;-60
2022/11/17 09:18:35;;;;;;;3.58;0.95;;;;;;;18.86;52.45;98620.66;5022792;28;20030;-59
2022/11/17 09:21:06;;;;;;;1.02;0.68;;;;;;;18.88;52.66;98628.50;5023097;28;20029;-60
2022/11/17 09:23:32;;;;;;;0.90;0.70;;;;;;;18.86;52.43;98622.50;5023352;28;20040;-58
2022/11/17 09:25:58;;;;;;;1.38;0.65;;;;;;;18.89;52.34;98628.25;5023442;28;20105;-60
2022/11/17 09:28:24;;;;;;;2.63;0.80;;;;;;;18.89;52.27;98630.13;5023143;28;20030;-60
2022/11/17 09:30:50;;;;;;;0.80;0.68;;;;;;;18.84;52.51;98630.81;5003900;28;20034;-60
2022/11/17 09:33:15;;;;;;;1.27;0.80;;;;;;;18.91;52.13;98644.22;5022875;28;20065;-60
2022/11/17 09:35:40;;;;;;;1.42;0.60;;;;;;;18.91;52.50;98649.59;5023131;28;20113;-60
2022/11/17 09:38:06;;;;;;;1.75;0.55;;;;;;;18.92;52.67;98643.97;5023136;28;20040;-60
2022/11/17 09:40:32;;;;;;;1.48;0.85;;;;;;;18.93;52.75;98661.78;5023202;28;20037;-60
2022/11/17 09:42:57;;;;;;;1.17;0.70;;;;;;;18.95;52.63;98657.00;5023145;28;20037;-56
2022/11/17 09:45:29;;;;;;;1.98;0.95;;;;;;;18.95;52.85;98664.28;5014863;28;20033;-60
2022/11/17 09:48:01;;;;;;;2.30;1.15;;;;;;;18.95;52.80;98664.28;5004950;28;20033;-59
2022/11/17 09:50:33;;;;;;;4.25;1.65;;;;;;;18.95;52.89;98666.97;5005299;28;20036;-60
2022/11/17 09:53:19;;;;;;;1.42;0.73;;;;;;;18.95;53.11;98666.97;4999775;28;20037;-60
2022/11/17 09:55:46;;;;;;;2.17;0.75;;;;;;;18.96;53.04;98677.50;5003659;28;20030;-60
2022/11/17 09:58:28;;;;;;;1.35;0.73;;;;;;;18.96;53.03;98676.69;5005225;28;20086;-60
2022/11/17 10:00:54;;;;;;;2.83;1.20;;;;;;;18.95;53.05;98667.78;5005612;28;20033;-60
2022/11/17 10:03:22;;;;;;;5.65;1.38;;;;;;;18.98;52.77;98671.88;5022629;28;20034;-60
2022/11/17 10:05:48;;;;;;;1.30;0.80;;;;;;;18.88;52.96;98652.72;5005580;28;20029;-60
2022/11/17 10:08:18;;;;;;;1.52;0.75;;;;;;;19.01;52.95;98676.81;5004627;28;20033;-60
2022/11/17 10:10:50;;;;;;;2.78;0.98;;;;;;;19.06;52.77;98678.84;5004129;28;20041;-62
2022/11/17 10:13:28;;;;;;;1.67;0.80;;;;;;;19.06;52.92;98676.97;5020536;28;20085;-61
2022/11/17 10:16:01;;;;;;;3.05;0.70;;;;;;;19.08;53.08;98684.84;5000390;28;20034;-61
2022/11/17 10:18:28;;;;;;;2.65;0.65;;;;;;;19.09;53.03;98686.50;5004811;28;20081;-62
2022/11/17 10:20:53;;;;;;;2.63;0.85;;;;;;;19.08;53.18;98672.19;4990539;28;20026;-59
2022/11/17 10:23:19;;;;;;;2.45;0.82;;;;;;;19.09;53.38;98687.31;5014170;28;20072;-61
2022/11/17 10:25:46;;;;;;;1.08;0.80;;;;;;;19.12;53.33;98684.19;5019459;28;20044;-61
2022/11/17 10:28:29;;;;;;;1.55;0.80;;;;;;;19.14;53.20;98689.31;5021394;28;20046;-62
2022/11/17 10:31:03;;;;;;;3.55;0.70;;;;;;;19.16;53.43;98689.94;4997335;28;20140;-61
2022/11/17 10:33:58;;;;;;;1.23;1.00;;;;;;;19.18;53.10;98690.53;5020639;28;20053;-63
2022/11/17 10:36:29;;;;;;;1.02;0.70;;;;;;;19.20;53.08;98705.44;5006118;28;20045;-61
2022/11/17 10:38:56;;;;;;;0.98;0.60;;;;;;;19.21;53.32;98706.25;5022177;28;20548;-62
2022/11/17 10:41:26;;;;;;;2.60;0.88;;;;;;;19.22;52.92;98711.41;4999298;28;20029;-62
2022/11/17 10:44:02;;;;;;;1.02;0.68;;;;;;;19.25;53.29;98706.63;4999187;28;20032;-63
2022/11/17 10:46:28;;;;;;;2.75;0.90;;;;;;;19.27;53.08;98720.69;4998653;28;20025;-61
2022/11/17 10:48:56;;;;;;;1.58;0.90;;;;;;;19.27;52.92;98712.59;5018998;28;20049;-63
2022/11/17 10:51:23;;;;;;;2.10;0.90;;;;;;;19.28;52.77;98711.56;5017308;28;20633;-60
2022/11/17 10:54:19;;;;;;;2.72;0.80;;;;;;;19.29;52.84;98718.59;5017160;28;20034;-62
2022/11/17 10:56:46;;;;;;;1.27;0.60;;;;;;;19.26;52.70;98717.16;4997981;28;20457;-62
2022/11/17 10:59:14;;;;;;;1.33;0.60;;;;;;;19.32;53.08;98710.06;5003120;28;20026;-62
2022/11/17 11:01:42;;;;;;;1.77;0.70;;;;;;;19.32;52.92;98715.44;5007257;28;20034;-65
2022/11/17 11:04:26;;;;;;;3.55;0.88;;;;;;;19.34;52.60;98718.75;5017427;28;20414;-62
2022/11/17 11:07:22;;;;;;;2.90;1.00;;;;;;;19.34;53.04;98716.06;5002972;28;20463;-61
2022/11/17 11:09:57;;;;;;;1.35;0.80;;;;;;;19.32;52.79;98718.97;5021692;28;20527;-60
2022/11/17 11:12:55;;;;;;;2.08;0.68;;;;;;;19.37;52.71;98724.53;5004442;28;20018;-59
2022/11/17 11:15:22;;;;;;;1.20;0.80;;;;;;;19.39;52.37;98729.69;5017288;28;20026;-59
2022/11/17 11:17:48;;;;;;;1.83;0.70;;;;;;;19.42;52.23;98723.84;5018460;28;20625;-60
2022/11/17 11:20:17;;;;;;;0.90;0.60;;;;;;;19.42;52.48;98724.66;5021892;28;20048;-59
2022/11/17 11:22:50;;;;;;;1.75;0.82;;;;;;;19.43;52.53;98723.59;5021335;28;20060;-59
2022/11/17 11:25:36;;;;;;;3.00;0.82;;;;;;;19.44;52.33;98724.44;5020417;28;20097;-59
2022/11/17 11:28:21;;;;;;;1.35;0.70;;;;;;;19.36;52.24;98720.16;5008363;28;20033;-59
2022/11/17 11:30:58;;;;;;;2.83;0.73;;;;;;;19.36;52.18;98717.47;5009585;28;20021;-60
2022/11/17 11:33:44;;;;;;;1.23;0.63;;;;;;;19.43;52.41;98730.88;5008825;28;20125;-60
2022/11/17 11:36:35;;;;;;;1.73;0.70;;;;;;;19.42;52.25;98729.22;5008944;28;20033;-60
2022/11/17 11:39:12;;;;;;;0.80;0.60;;;;;;;19.41;52.31;98730.25;5008737;28;20047;-58
2022/11/17 11:41:53;;;;;;;0.95;0.70;;;;;;;19.38;52.55;98734.25;5026339;28;20471;-60
2022/11/17 11:44:49;;;;;;;1.38;0.88;;;;;;;19.40;52.57;98739.41;5006671;28;20097;-61
2022/11/17 11:47:23;;;;;;;1.75;0.60;;;;;;;19.39;52.30;98738.56;5012400;28;20068;-62
2022/11/17 11:49:57;;;;;;;1.75;0.50;;;;;;;19.39;52.35;98735.06;5012318;28;20407;-62
2022/11/17 11:52:27;;;;;;;1.85;0.70;;;;;;;19.39;52.34;98746.66;5005662;28;20480;-61
2022/11/17 11:54:58;;;;;;;1.30;0.80;;;;;;;19.39;52.25;98746.66;4988589;28;20030;-60
2022/11/17 11:57:35;;;;;;;2.28;1.00;;;;;;;19.41;52.38;98752.66;4988267;28;20026;-61
2022/11/17 12:00:05;;;;;;;1.30;0.73;;;;;;;19.39;52.53;98753.94;5006010;28;20497;-60
2022/11/17 12:03:01;;;;;;;0.82;0.63;;;;;;;19.44;52.45;98754.06;5005351;28;20029;-60
2022/11/17 12:05:55;;;;;;;0.75;0.60;;;;;;;19.45;52.12;98759.25;5021731;28;20450;-62
2022/11/17 12:08:28;;;;;;;1.25;0.50;;;;;;;19.46;52.46;98765.47;5021579;28;20025;-61
2022/11/17 12:11:58;;;;;;;1.35;0.60;;;;;;;19.47;52.57;98765.22;5006552;28;20026;-64
2022/11/17 12:13:46;;;;;;;1.30;0.60;;;;;;;19.48;52.05;98772.25;5018265;28;20121;-61